Darstellungsparameter: Aktuell verwendete Einstellungen:
Skalierung der Graphiken ... ?
xyx+y,   Skalierungsfaktor:      Skalierung: Modus: x, Faktor: 1
Darstellungszeitraum ... ?
Vom - - bis: - -   Zeitraum: 18.02.2021 - 03.03.2021
Min/Max/Avg-Anzeige ... ?
Zeige MMA aktuell
Zeige MMA Monat
Zeige MMA alles
Zeige --A aktuell
Zeige --A Monat
Zeige --A alles
Keine MMA-Anzeige
MMA:
Average (ber die Originaldaten)
MMA-Basis: 23.02.2003 - 03.08.2020
Quicknavigation für Darstellung... ?
Tage:      1T, 2T, 3T, 5T -1T -2T -3T -5T +1T +2T +3T +5T
Wochen: 1W, 2W, 3W -1W -2W -3W +1W +2W +3W
Monate: 1M, 3M, 6M -1M -3M -6M +1M +3M +6M
Jahre:    1J, 3J, 5J, 10J -1J -3J -5J -10J +1J +3J +5J +10J
Nutze für die Darstellung ... ?
Originaldaten oder ...
Mittelwerte Minima Maxima auf...
Stundenbasis Tagesbasis Wochenbasis
Monatsbasis Jahresbasis      Datenbasis: Mittelwerte auf Stundenbasis
Darstellen als:
Statistik (Auto) Statistik J:M      Darstellung:
Zur Graphik,    zurück zur Übersicht aller Sensoren.
 
Tabellarische Datenbersicht: ?
 
Sensor: Nr:Datum:Temp:Abs-Feuchte:Windchill:Wind:
Aussen-T/F 1 18-02-2021 00:00:00 1.64167 C 5.15 g/m*3 1.64 C 0 km/h
2 18-02-2021 01:00:00 1.08333 C 4.96 g/m*3 1.08 C 0.13333 km/h
3 18-02-2021 02:00:00 0.6 C 4.82 g/m*3 0.6 C 0 km/h
4 18-02-2021 03:00:00 0.08333 C 4.67 g/m*3 0.08 C 0 km/h
5 18-02-2021 04:00:00 -0.01667 C 4.65 g/m*3 -0.02 C 0 km/h
6 18-02-2021 05:00:00 -0.26667 C 4.57 g/m*3 -0.27 C 0 km/h
7 18-02-2021 06:00:00 -0.46667 C 4.5 g/m*3 -0.47 C 0 km/h
8 18-02-2021 07:00:00 -0.31667 C 4.56 g/m*3 -0.32 C 0 km/h
9 18-02-2021 08:00:00 0.30833 C 4.8 g/m*3 0.31 C 0.4 km/h
10 18-02-2021 09:00:00 0.81667 C 4.97 g/m*3 0.82 C 0.26667 km/h
11 18-02-2021 10:00:00 2.075 C 5.42 g/m*3 2.08 C 1.2 km/h
12 18-02-2021 11:00:00 3.725 C 6.09 g/m*3 3.73 C 0.53333 km/h
13 18-02-2021 12:00:00 5.55 C 6.9 g/m*3 5.55 C 0.13333 km/h
14 18-02-2021 13:00:00 7.475 C 7.57 g/m*3 7.48 C 1.33333 km/h
15 18-02-2021 14:00:00 8.58333 C 7.12 g/m*3 8.58 C 4.8 km/h
16 18-02-2021 15:00:00 8.125 C 7.08 g/m*3 8.13 C 0.66667 km/h
17 18-02-2021 16:00:00 8.48333 C 7.39 g/m*3 8.48 C 3.88333 km/h
18 18-02-2021 17:00:00 8.25833 C 7.14 g/m*3 8.26 C 2.66667 km/h
19 18-02-2021 18:00:00 6.88333 C 6.88 g/m*3 6.88 C 3.2 km/h
20 18-02-2021 19:00:00 6.91667 C 6.94 g/m*3 6.92 C 4 km/h
21 18-02-2021 20:00:00 7.375 C 7.13 g/m*3 7.38 C 3.06667 km/h
22 18-02-2021 21:00:00 8.15 C 7.79 g/m*3 8.15 C 4.41667 km/h
23 18-02-2021 22:00:00 8.15833 C 7.8 g/m*3 6.52 C 9.51667 km/h
24 18-02-2021 23:00:00 6.80833 C 6.93 g/m*3 5.41 C 7.375 km/h
25 19-02-2021 00:00:00 5.29167 C 6.31 g/m*3 3.23 C 9 km/h
Sensor: Nr:Datum:Temp:Abs-Feuchte:Windchill:Wind:
Aussen-T/F 26 19-02-2021 01:00:00 5.11667 C 6.18 g/m*3 3.19 C 8.33333 km/h
27 19-02-2021 02:00:00 4.01667 C 5.85 g/m*3 2.88 C 5.20833 km/h
28 19-02-2021 03:00:00 3.65833 C 5.81 g/m*3 2.48 C 5.20833 km/h
29 19-02-2021 04:00:00 3.54167 C 5.82 g/m*3 2.08 C 5.9 km/h
30 19-02-2021 05:00:00 4.125 C 6.01 g/m*3 2.75 C 5.90833 km/h
31 19-02-2021 06:00:00 3.25833 C 5.65 g/m*3 3.26 C 2 km/h
32 19-02-2021 07:00:00 3.65 C 5.9 g/m*3 3.65 C 1.33333 km/h
33 19-02-2021 08:00:00 4.2 C 6.15 g/m*3 4.2 C 1.73333 km/h
34 19-02-2021 09:00:00 5.23333 C 6.54 g/m*3 5.23 C 0.53333 km/h
35 19-02-2021 10:00:00 6.275 C 6.86 g/m*3 6.28 C 1.46667 km/h
36 19-02-2021 11:00:00 7.65 C 7.21 g/m*3 7.65 C 0.53333 km/h
37 19-02-2021 12:00:00 9 C 7.52 g/m*3 9 C 0.53333 km/h
38 19-02-2021 13:00:00 10.01667 C 7.63 g/m*3 10.02 C 0.4 km/h
39 19-02-2021 14:00:00 11.09167 C 7.79 g/m*3 11.09 C 3.08333 km/h
40 19-02-2021 15:00:00 11.80833 C 7.56 g/m*3 11.81 C 6.99167 km/h
41 19-02-2021 16:00:00 11.85 C 7.51 g/m*3 11.85 C 6.30833 km/h
42 19-02-2021 17:00:00 10.28333 C 7.34 g/m*3 10.28 C 4.66667 km/h
43 19-02-2021 18:00:00 7.3 C 6.76 g/m*3 6.37 C 6 km/h
44 19-02-2021 19:00:00 6.275 C 6.64 g/m*3 6.28 C 4.26667 km/h
45 19-02-2021 20:00:00 5.39167 C 6.35 g/m*3 5.39 C 0.8 km/h
46 19-02-2021 21:00:00 4.175 C 5.96 g/m*3 4.18 C 0 km/h
47 19-02-2021 22:00:00 3.71667 C 5.86 g/m*3 3.72 C 0.26667 km/h
48 19-02-2021 23:00:00 3.19167 C 5.69 g/m*3 3.19 C 0 km/h
49 20-02-2021 00:00:00 2.83333 C 5.59 g/m*3 2.83 C 0 km/h
50 20-02-2021 01:00:00 2.48333 C 5.47 g/m*3 2.48 C 0 km/h
Sensor: Nr:Datum:Temp:Abs-Feuchte:Windchill:Wind:
Aussen-T/F 51 20-02-2021 02:00:00 2.21667 C 5.39 g/m*3 2.22 C 0 km/h
52 20-02-2021 03:00:00 2.125 C 5.38 g/m*3 2.13 C 0 km/h
53 20-02-2021 04:00:00 1.58333 C 5.19 g/m*3 1.58 C 0 km/h
54 20-02-2021 05:00:00 1.20833 C 5.05 g/m*3 1.21 C 0 km/h
55 20-02-2021 06:00:00 0.85 C 4.93 g/m*3 0.85 C 0.26667 km/h
56 20-02-2021 07:00:00 0.8 C 4.92 g/m*3 0.8 C 0.13333 km/h
57 20-02-2021 08:00:00 1.25833 C 5.12 g/m*3 1.26 C 0 km/h
58 20-02-2021 09:00:00 1.89167 C 5.35 g/m*3 1.89 C 0 km/h
59 20-02-2021 10:00:00 3.41667 C 5.95 g/m*3 3.42 C 2 km/h
60 20-02-2021 11:00:00 8.10833 C 8.16 g/m*3 8.11 C 3.2 km/h
61 20-02-2021 12:00:00 11.60833 C 9.07 g/m*3 11.61 C 7.51667 km/h
62 20-02-2021 13:00:00 14.96667 C 8.64 g/m*3 14.97 C 7.25 km/h
63 20-02-2021 14:00:00 16.40833 C 8.6 g/m*3 16.41 C 6.83333 km/h
64 20-02-2021 15:00:00 16.55833 C 8.67 g/m*3 16.56 C 3.75 km/h
65 20-02-2021 16:00:00 16.01667 C 8.98 g/m*3 16.02 C 2.4 km/h
66 20-02-2021 17:00:00 14.09167 C 9.02 g/m*3 14.09 C 4.13333 km/h
67 20-02-2021 18:00:00 10.94167 C 8.29 g/m*3 10.52 C 6.14167 km/h
68 20-02-2021 19:00:00 9.39167 C 7.94 g/m*3 8.7 C 6.275 km/h
69 20-02-2021 20:00:00 8.46667 C 7.67 g/m*3 7.67 C 6.14167 km/h
70 20-02-2021 21:00:00 7.675 C 7.36 g/m*3 7.68 C 3.86667 km/h
71 20-02-2021 22:00:00 6.575 C 6.91 g/m*3 6.58 C 0.8 km/h
72 20-02-2021 23:00:00 5.825 C 6.66 g/m*3 5.83 C 1.06667 km/h
73 21-02-2021 00:00:00 4.53333 C 6.12 g/m*3 4.53 C 0 km/h
74 21-02-2021 01:00:00 3.54167 C 5.81 g/m*3 3.54 C 0.53333 km/h
75 21-02-2021 02:00:00 3.275 C 5.74 g/m*3 3.28 C 0 km/h
Sensor: Nr:Datum:Temp:Abs-Feuchte:Windchill:Wind:
Aussen-T/F 76 21-02-2021 03:00:00 3.04167 C 5.66 g/m*3 3.04 C 0 km/h
77 21-02-2021 04:00:00 2.325 C 5.42 g/m*3 2.33 C 0.26667 km/h
78 21-02-2021 05:00:00 2.05 C 5.33 g/m*3 2.05 C 0.13333 km/h
79 21-02-2021 06:00:00 1.70833 C 5.23 g/m*3 1.71 C 0.13333 km/h
80 21-02-2021 07:00:00 1.19167 C 5.05 g/m*3 1.19 C 0.13333 km/h
81 21-02-2021 08:00:00 1.21667 C 5.06 g/m*3 1.22 C 0.13333 km/h
82 21-02-2021 09:00:00 2.01667 C 5.38 g/m*3 2.02 C 0.53333 km/h
83 21-02-2021 10:00:00 3.925 C 6.15 g/m*3 3.93 C 0.8 km/h
84 21-02-2021 11:00:00 7.24167 C 7.71 g/m*3 7.24 C 1.06667 km/h
85 21-02-2021 12:00:00 11.425 C 8.78 g/m*3 11.43 C 4.14167 km/h
86 21-02-2021 13:00:00 15.85 C 7.97 g/m*3 15.85 C 6.31667 km/h
87 21-02-2021 14:00:00 17.91667 C 7.46 g/m*3 17.92 C 5.76667 km/h
88 21-02-2021 15:00:00 17.48333 C 7.46 g/m*3 17.48 C 4.55 km/h
89 21-02-2021 16:00:00 16.59167 C 7.66 g/m*3 16.59 C 5.06667 km/h
90 21-02-2021 17:00:00 15.05833 C 7.71 g/m*3 15.06 C 6.68333 km/h
91 21-02-2021 18:00:00 11.95833 C 7.5 g/m*3 11.96 C 8.21667 km/h
92 21-02-2021 19:00:00 11.75833 C 7.57 g/m*3 11.76 C 9.425 km/h
93 21-02-2021 20:00:00 10.83333 C 7.4 g/m*3 10.26 C 6.69167 km/h
94 21-02-2021 21:00:00 8.63333 C 6.85 g/m*3 8.63 C 1.46667 km/h
95 21-02-2021 22:00:00 6.55833 C 6.45 g/m*3 6.56 C 0 km/h
96 21-02-2021 23:00:00 5.4 C 6.19 g/m*3 5.4 C 0 km/h
97 22-02-2021 00:00:00 4.18333 C 5.85 g/m*3 4.18 C 0 km/h
98 22-02-2021 01:00:00 3.50833 C 5.7 g/m*3 3.51 C 0.53333 km/h
99 22-02-2021 02:00:00 2.675 C 5.41 g/m*3 2.68 C 0 km/h
100 22-02-2021 03:00:00 1.88333 C 5.18 g/m*3 1.88 C 0 km/h
Sensor: Nr:Datum:Temp:Abs-Feuchte:Windchill:Wind:
Aussen-T/F 101 22-02-2021 04:00:00 1.40833 C 5.05 g/m*3 1.41 C 0.13333 km/h
102 22-02-2021 05:00:00 1.43333 C 5.09 g/m*3 1.43 C 2.4 km/h
103 22-02-2021 06:00:00 1.05833 C 4.96 g/m*3 1.06 C 0.13333 km/h
104 22-02-2021 07:00:00 1.25 C 5.07 g/m*3 1.25 C 1.06667 km/h
105 22-02-2021 08:00:00 1.96667 C 5.32 g/m*3 1.97 C 1.33333 km/h
106 22-02-2021 09:00:00 3.15833 C 5.79 g/m*3 3.16 C 0 km/h
107 22-02-2021 10:00:00 4.85833 C 6.52 g/m*3 4.86 C 0.13333 km/h
108 22-02-2021 11:00:00 6.3 C 6.93 g/m*3 6.3 C 0.93333 km/h
109 22-02-2021 12:00:00 7.90833 C 7.18 g/m*3 7.91 C 1.2 km/h
110 22-02-2021 13:00:00 9.33333 C 7.5 g/m*3 9.33 C 1.73333 km/h
111 22-02-2021 14:00:00 11.34167 C 8.03 g/m*3 11.34 C 0 km/h
112 22-02-2021 15:00:00 13.69167 C 8.28 g/m*3 13.69 C 0.8 km/h
113 22-02-2021 16:00:00 14.44167 C 8.72 g/m*3 14.44 C 0 km/h
114 22-02-2021 17:00:00 12.63333 C 8.37 g/m*3 12.63 C 2.93333 km/h
115 22-02-2021 18:00:00 11.19167 C 8.1 g/m*3 11.19 C 1.6 km/h
116 22-02-2021 19:00:00 10.50833 C 7.93 g/m*3 10.51 C 0 km/h
117 22-02-2021 20:00:00 10.175 C 7.9 g/m*3 10.18 C 0 km/h
118 22-02-2021 21:00:00 9.13333 C 7.5 g/m*3 9.13 C 0 km/h
119 22-02-2021 22:00:00 7.86667 C 7.21 g/m*3 7.87 C 0 km/h
120 22-02-2021 23:00:00 7.70833 C 7.3 g/m*3 7.71 C 0 km/h
121 23-02-2021 00:00:00 7.375 C 7.19 g/m*3 7.38 C 0 km/h
122 23-02-2021 01:00:00 7.2 C 7.18 g/m*3 7.2 C 0 km/h
123 23-02-2021 02:00:00 7.26667 C 7.25 g/m*3 7.27 C 0 km/h
124 23-02-2021 03:00:00 7.38333 C 7.32 g/m*3 7.38 C 0 km/h
125 23-02-2021 04:00:00 7.36667 C 7.35 g/m*3 7.37 C 0 km/h
Sensor: Nr:Datum:Temp:Abs-Feuchte:Windchill:Wind:
Aussen-T/F 126 23-02-2021 05:00:00 7.16667 C 7.24 g/m*3 7.17 C 0 km/h
127 23-02-2021 06:00:00 6.33333 C 6.89 g/m*3 6.33 C 0 km/h
128 23-02-2021 07:00:00 6.83333 C 7.27 g/m*3 6.83 C 1.2 km/h
129 23-02-2021 08:00:00 7.975 C 7.78 g/m*3 7.98 C 1.73333 km/h
130 23-02-2021 09:00:00 8.91667 C 8.13 g/m*3 8.92 C 0.13333 km/h
131 23-02-2021 10:00:00 10.43333 C 8.69 g/m*3 10.43 C 0.66667 km/h
132 23-02-2021 11:00:00 13.50833 C 9.58 g/m*3 13.51 C 1.2 km/h
133 23-02-2021 12:00:00 16.23333 C 10.08 g/m*3 16.23 C 5.23333 km/h
134 23-02-2021 13:00:00 18.51667 C 9.73 g/m*3 18.52 C 10.63333 km/h
135 23-02-2021 14:00:00 19.725 C 9.76 g/m*3 19.73 C 6.43333 km/h
136 23-02-2021 15:00:00 19.70833 C 9.71 g/m*3 19.71 C 8.19167 km/h
137 23-02-2021 16:00:00 19.66667 C 9.58 g/m*3 19.67 C 4.26667 km/h
138 23-02-2021 17:00:00 18.21667 C 9.46 g/m*3 18.22 C 5.88333 km/h
139 23-02-2021 18:00:00 14.58333 C 9.24 g/m*3 14.58 C 6.4 km/h
140 23-02-2021 19:00:00 12.85 C 9.03 g/m*3 12.85 C 4.66667 km/h
141 23-02-2021 20:00:00 11.35 C 8.65 g/m*3 11.35 C 1.06667 km/h
142 23-02-2021 21:00:00 10.10833 C 8.33 g/m*3 10.11 C 0 km/h
143 23-02-2021 22:00:00 9.25 C 8.03 g/m*3 9.25 C 0 km/h
144 23-02-2021 23:00:00 8.29167 C 7.7 g/m*3 8.29 C 0.4 km/h
145 24-02-2021 00:00:00 7.91667 C 7.65 g/m*3 7.92 C 0.53333 km/h
146 24-02-2021 01:00:00 7.1 C 7.27 g/m*3 7.1 C 0.13333 km/h
147 24-02-2021 02:00:00 6.45833 C 7.02 g/m*3 6.46 C 0 km/h
148 24-02-2021 03:00:00 5.96667 C 6.86 g/m*3 5.97 C 0 km/h
149 24-02-2021 04:00:00 5.5 C 6.67 g/m*3 5.5 C 0 km/h
150 24-02-2021 05:00:00 5.11667 C 6.51 g/m*3 5.12 C 0 km/h
Sensor: Nr:Datum:Temp:Abs-Feuchte:Windchill:Wind:
Aussen-T/F 151 24-02-2021 06:00:00 4.65833 C 6.34 g/m*3 4.66 C 0 km/h
152 24-02-2021 07:00:00 4.79167 C 6.43 g/m*3 4.79 C 0.4 km/h
153 24-02-2021 08:00:00 5.55 C 6.8 g/m*3 5.55 C 0.4 km/h
154 24-02-2021 09:00:00 6.575 C 7.31 g/m*3 6.58 C 0.26667 km/h
155 24-02-2021 10:00:00 7.44167 C 7.73 g/m*3 7.44 C 0 km/h
156 24-02-2021 11:00:00 9.74167 C 8.97 g/m*3 9.74 C 0 km/h
157 24-02-2021 12:00:00 13.26667 C 10.67 g/m*3 13.27 C 0 km/h
158 24-02-2021 13:00:00 17.18333 C 10.55 g/m*3 17.18 C 6.025 km/h
159 24-02-2021 14:00:00 18.73333 C 10.36 g/m*3 18.73 C 4.28333 km/h
160 24-02-2021 15:00:00 18.79167 C 10.41 g/m*3 18.79 C 1.475 km/h
161 24-02-2021 16:00:00 18.89167 C 10.34 g/m*3 18.89 C 0.13333 km/h
162 24-02-2021 17:00:00 16.73333 C 9.86 g/m*3 16.73 C 0.93333 km/h
163 24-02-2021 18:00:00 13.725 C 9.11 g/m*3 13.73 C 0.26667 km/h
164 24-02-2021 19:00:00 11.96667 C 8.69 g/m*3 11.97 C 0 km/h
165 24-02-2021 20:00:00 10.1 C 8.15 g/m*3 10.1 C 0 km/h
166 24-02-2021 21:00:00 8.825 C 7.84 g/m*3 8.82 C 0 km/h
167 24-02-2021 22:00:00 8.05833 C 7.62 g/m*3 8.06 C 0 km/h
168 24-02-2021 23:00:00 7.33333 C 7.36 g/m*3 7.33 C 0 km/h
169 25-02-2021 00:00:00 6.60833 C 7.09 g/m*3 6.61 C 0.13333 km/h
170 25-02-2021 01:00:00 6.15833 C 6.92 g/m*3 6.16 C 0.53333 km/h
171 25-02-2021 02:00:00 5.61667 C 6.72 g/m*3 5.62 C 0 km/h
172 25-02-2021 03:00:00 5.19167 C 6.54 g/m*3 5.19 C 0 km/h
173 25-02-2021 04:00:00 4.475 C 6.23 g/m*3 4.47 C 0 km/h
174 25-02-2021 05:00:00 4.175 C 6.14 g/m*3 4.18 C 0.13333 km/h
175 25-02-2021 06:00:00 3.76667 C 6 g/m*3 3.77 C 0 km/h
Sensor: Nr:Datum:Temp:Abs-Feuchte:Windchill:Wind:
Aussen-T/F 176 25-02-2021 07:00:00 3.33333 C 5.84 g/m*3 3.33 C 0 km/h
177 25-02-2021 08:00:00 3.74167 C 6 g/m*3 3.74 C 0 km/h
178 25-02-2021 09:00:00 4.56667 C 6.39 g/m*3 4.57 C 0 km/h
179 25-02-2021 10:00:00 6.4 C 7.23 g/m*3 6.4 C 0.4 km/h
180 25-02-2021 11:00:00 9.25833 C 8.68 g/m*3 9.26 C 1.33333 km/h
181 25-02-2021 12:00:00 13.89167 C 8.89 g/m*3 13.89 C 1.2 km/h
182 25-02-2021 13:00:00 17.64167 C 8.88 g/m*3 17.64 C 1.73333 km/h
183 25-02-2021 14:00:00 19.93333 C 8.88 g/m*3 19.93 C 2.53333 km/h
184 25-02-2021 15:00:00 18.975 C 8.53 g/m*3 18.98 C 5.475 km/h
185 25-02-2021 16:00:00 18.51667 C 8.05 g/m*3 18.52 C 3.74167 km/h
186 25-02-2021 17:00:00 15.69167 C 7.79 g/m*3 15.69 C 6.55 km/h
187 25-02-2021 18:00:00 12.9 C 7.49 g/m*3 12.9 C 5.6 km/h
188 25-02-2021 19:00:00 11.68333 C 7.31 g/m*3 11.68 C 2.13333 km/h
189 25-02-2021 20:00:00 10.78333 C 7.36 g/m*3 10.78 C 0.8 km/h
190 25-02-2021 21:00:00 10.03333 C 7.16 g/m*3 10.03 C 3.34167 km/h
191 25-02-2021 22:00:00 8.75833 C 6.83 g/m*3 8.76 C 0.4 km/h
192 25-02-2021 23:00:00 7.2 C 6.6 g/m*3 7.2 C 1.33333 km/h
193 26-02-2021 00:00:00 6.60833 C 6.59 g/m*3 6.61 C 1.73333 km/h
194 26-02-2021 01:00:00 6.425 C 6.64 g/m*3 6.43 C 2.53333 km/h
195 26-02-2021 02:00:00 6.38333 C 6.67 g/m*3 6.38 C 0.8 km/h
196 26-02-2021 03:00:00 7 C 6.9 g/m*3 7 C 0 km/h
197 26-02-2021 04:00:00 7.225 C 6.94 g/m*3 7.23 C 0.13333 km/h
198 26-02-2021 05:00:00 7.64167 C 7.1 g/m*3 7.64 C 3.075 km/h
199 26-02-2021 06:00:00 8.03333 C 7.35 g/m*3 7.32 C 5.63333 km/h
200 26-02-2021 07:00:00 8.38333 C 7.63 g/m*3 6.59 C 10.61667 km/h
Sensor: Nr:Datum:Temp:Abs-Feuchte:Windchill:Wind:
Aussen-T/F 201 26-02-2021 08:00:00 7.8 C 7.36 g/m*3 6.38 C 8.19167 km/h
202 26-02-2021 09:00:00 6.99167 C 7.01 g/m*3 5.56 C 7.64167 km/h
203 26-02-2021 10:00:00 6.63333 C 6.97 g/m*3 6.63 C 2.26667 km/h
204 26-02-2021 11:00:00 6.80833 C 7.11 g/m*3 6.81 C 3.88333 km/h
205 26-02-2021 12:00:00 7.025 C 7.23 g/m*3 7.03 C 3.60833 km/h
206 26-02-2021 13:00:00 7.50833 C 7.35 g/m*3 7.51 C 0.66667 km/h
207 26-02-2021 14:00:00 8.44167 C 7.58 g/m*3 8.44 C 1.6 km/h
208 26-02-2021 15:00:00 8.76667 C 7.71 g/m*3 8.77 C 0.8 km/h
209 26-02-2021 16:00:00 9.29167 C 7.33 g/m*3 9.29 C 4.80833 km/h
210 26-02-2021 17:00:00 9.35 C 6.69 g/m*3 8.99 C 5.09167 km/h
211 26-02-2021 18:00:00 7.41667 C 6.16 g/m*3 7.42 C 3.20833 km/h
212 26-02-2021 19:00:00 6.50833 C 6.22 g/m*3 6.51 C 3.06667 km/h
213 26-02-2021 20:00:00 6.225 C 6.4 g/m*3 6.23 C 1.2 km/h
214 26-02-2021 21:00:00 5.475 C 6.12 g/m*3 5.48 C 3.46667 km/h
215 26-02-2021 22:00:00 3.73333 C 5.6 g/m*3 3.73 C 1.33333 km/h
216 26-02-2021 23:00:00 2.55833 C 5.28 g/m*3 2.56 C 0.13333 km/h
217 27-02-2021 00:00:00 1.79167 C 5.1 g/m*3 1.79 C 0.13333 km/h
218 27-02-2021 01:00:00 1.38333 C 5.01 g/m*3 1.38 C 0.13333 km/h
219 27-02-2021 02:00:00 0.85833 C 4.83 g/m*3 0.86 C 0.13333 km/h
220 27-02-2021 03:00:00 0.46667 C 4.74 g/m*3 0.47 C 0 km/h
221 27-02-2021 04:00:00 0.04167 C 4.62 g/m*3 0.04 C 0.13333 km/h
222 27-02-2021 05:00:00 -0.175 C 4.55 g/m*3 -0.18 C 0 km/h
223 27-02-2021 06:00:00 -0.40833 C 4.47 g/m*3 -0.41 C 0 km/h
224 27-02-2021 07:00:00 -0.19167 C 4.57 g/m*3 -0.19 C 0.26667 km/h
225 27-02-2021 08:00:00 1.25 C 5.08 g/m*3 1.25 C 0.4 km/h
Sensor: Nr:Datum:Temp:Abs-Feuchte:Windchill:Wind:
Aussen-T/F 226 27-02-2021 09:00:00 2.35833 C 5.48 g/m*3 2.36 C 0.53333 km/h
227 27-02-2021 10:00:00 3.1 C 5.75 g/m*3 3.1 C 0.66667 km/h
228 27-02-2021 11:00:00 4.31667 C 6.17 g/m*3 4.32 C 1.73333 km/h
229 27-02-2021 12:00:00 6.15 C 6.54 g/m*3 6.15 C 1.86667 km/h
230 27-02-2021 13:00:00 8.29167 C 6.55 g/m*3 7.02 C 7.90833 km/h
231 27-02-2021 14:00:00 9.35833 C 6.43 g/m*3 8.92 C 5.35833 km/h
232 27-02-2021 15:00:00 9.85833 C 6.34 g/m*3 9.38 C 5.74167 km/h
233 27-02-2021 16:00:00 10.59167 C 6.27 g/m*3 10.01 C 6.58333 km/h
234 27-02-2021 17:00:00 10.86667 C 6.57 g/m*3 10.87 C 2.93333 km/h
235 27-02-2021 18:00:00 7.25 C 6.22 g/m*3 7.25 C 4.4 km/h
236 27-02-2021 19:00:00 5.225 C 5.91 g/m*3 5.23 C 4.93333 km/h
237 27-02-2021 20:00:00 4.625 C 5.9 g/m*3 4.63 C 3.88333 km/h
238 27-02-2021 21:00:00 5.84167 C 6.13 g/m*3 5.84 C 3.475 km/h
239 27-02-2021 22:00:00 5.89167 C 6.03 g/m*3 4.78 C 5.9 km/h
240 27-02-2021 23:00:00 5.8 C 5.94 g/m*3 5.8 C 2.66667 km/h
241 28-02-2021 00:00:00 5.825 C 5.86 g/m*3 5.83 C 2.95833 km/h
242 28-02-2021 01:00:00 5.825 C 5.76 g/m*3 4.94 C 5.225 km/h
243 28-02-2021 02:00:00 5.68333 C 5.69 g/m*3 5.68 C 3.88333 km/h
244 28-02-2021 03:00:00 5.43333 C 5.48 g/m*3 4.54 C 5.09167 km/h
245 28-02-2021 04:00:00 5.06667 C 5.42 g/m*3 5.07 C 1.33333 km/h
246 28-02-2021 05:00:00 4.75833 C 5.39 g/m*3 4.76 C 2.13333 km/h
247 28-02-2021 06:00:00 3.28333 C 5.08 g/m*3 3.28 C 0.66667 km/h
248 28-02-2021 07:00:00 1.58333 C 4.75 g/m*3 1.58 C 0.26667 km/h
249 28-02-2021 08:00:00 1.09167 C 4.76 g/m*3 1.09 C 0.53333 km/h
250 28-02-2021 09:00:00 1.65833 C 4.99 g/m*3 1.66 C 1.73333 km/h
Sensor: Nr:Datum:Temp:Abs-Feuchte:Windchill:Wind:
Aussen-T/F 251 28-02-2021 10:00:00 3.55 C 5.45 g/m*3 3.55 C 3.73333 km/h
252 28-02-2021 11:00:00 6.55833 C 5.63 g/m*3 5.77 C 5.23333 km/h
253 28-02-2021 12:00:00 8.34167 C 5.66 g/m*3 8.34 C 4.54167 km/h
254 28-02-2021 13:00:00 9.875 C 5.78 g/m*3 9.88 C 3.6 km/h
255 28-02-2021 14:00:00 11.30833 C 5.49 g/m*3 11.31 C 10.725 km/h
256 28-02-2021 15:00:00 11.63333 C 5.25 g/m*3 11.63 C 9.54167 km/h
257 28-02-2021 16:00:00 12.35 C 5.26 g/m*3 12.35 C 6.575 km/h
258 28-02-2021 17:00:00 12.00833 C 5.87 g/m*3 12.01 C 2.275 km/h
259 28-02-2021 18:00:00 7.725 C 5.58 g/m*3 6.78 C 6.26667 km/h
260 28-02-2021 19:00:00 5.575 C 5.43 g/m*3 4.38 C 6.01667 km/h
261 28-02-2021 20:00:00 4.425 C 5.37 g/m*3 4.43 C 4.26667 km/h
262 28-02-2021 21:00:00 3.14167 C 5.17 g/m*3 3.14 C 0 km/h
263 28-02-2021 22:00:00 2.275 C 5.03 g/m*3 2.28 C 0 km/h
264 28-02-2021 23:00:00 1.24167 C 4.78 g/m*3 1.24 C 0 km/h
265 01-03-2021 00:00:00 0.76667 C 4.7 g/m*3 0.77 C 0 km/h
266 01-03-2021 01:00:00 0.1 C 4.53 g/m*3 0.1 C 0 km/h
267 01-03-2021 02:00:00 -0.25833 C 4.46 g/m*3 -0.26 C 0 km/h
268 01-03-2021 03:00:00 -0.55833 C 4.38 g/m*3 -0.56 C 0 km/h
269 01-03-2021 04:00:00 -0.9 C 4.29 g/m*3 -0.9 C 0 km/h
270 01-03-2021 05:00:00 -1.275 C 4.2 g/m*3 -1.27 C 0 km/h
271 01-03-2021 06:00:00 -1.475 C 4.15 g/m*3 -1.48 C 0.13333 km/h
272 01-03-2021 07:00:00 -1.71667 C 4.08 g/m*3 -1.72 C 0 km/h
273 01-03-2021 08:00:00 -1.45 C 4.17 g/m*3 -1.45 C 0 km/h
274 01-03-2021 09:00:00 -0.575 C 4.46 g/m*3 -0.57 C 0 km/h
275 01-03-2021 10:00:00 1.31667 C 5.11 g/m*3 1.32 C 2 km/h
Sensor: Nr:Datum:Temp:Abs-Feuchte:Windchill:Wind:
Aussen-T/F 276 01-03-2021 11:00:00 3.9 C 6 g/m*3 2.4 C 6.175 km/h
277 01-03-2021 12:00:00 7 C 6.2 g/m*3 6.15 C 5.6 km/h
278 01-03-2021 13:00:00 9.88333 C 6.3 g/m*3 9.4 C 5.75 km/h
279 01-03-2021 14:00:00 11.93333 C 6.09 g/m*3 11.93 C 4.94167 km/h
280 01-03-2021 15:00:00 12.71667 C 6.12 g/m*3 12.72 C 5.89167 km/h
281 01-03-2021 16:00:00 13.74167 C 6.4 g/m*3 13.74 C 6.71667 km/h
282 01-03-2021 17:00:00 13.53333 C 6.85 g/m*3 13.53 C 4.80833 km/h
283 01-03-2021 18:00:00 9.18333 C 6.52 g/m*3 9.18 C 0 km/h
284 01-03-2021 19:00:00 6.8 C 6.16 g/m*3 6.8 C 3.73333 km/h
285 01-03-2021 20:00:00 5.60833 C 5.93 g/m*3 5.61 C 3.46667 km/h
286 01-03-2021 21:00:00 5.14167 C 5.93 g/m*3 5.14 C 4.26667 km/h
287 01-03-2021 22:00:00 4.50833 C 5.86 g/m*3 4.51 C 3.6 km/h
288 01-03-2021 23:00:00 3.26667 C 5.48 g/m*3 3.27 C 0 km/h
289 02-03-2021 00:00:00 2.14167 C 5.18 g/m*3 2.14 C 0 km/h
290 02-03-2021 01:00:00 1.66667 C 5.08 g/m*3 1.67 C 0 km/h
291 02-03-2021 02:00:00 1 C 4.88 g/m*3 1 C 0 km/h
292 02-03-2021 03:00:00 0.325 C 4.66 g/m*3 0.33 C 0 km/h
293 02-03-2021 04:00:00 0.025 C 4.61 g/m*3 0.03 C 0 km/h
294 02-03-2021 05:00:00 -0.325 C 4.5 g/m*3 -0.33 C 0 km/h
295 02-03-2021 06:00:00 -0.45833 C 4.46 g/m*3 -0.46 C 0 km/h
296 02-03-2021 07:00:00 -0.58333 C 4.43 g/m*3 -0.58 C 0 km/h
297 02-03-2021 08:00:00 -0.83333 C 4.35 g/m*3 -0.83 C 0 km/h
298 02-03-2021 09:00:00 -0.08333 C 4.62 g/m*3 -0.08 C 0 km/h
299 02-03-2021 10:00:00 1.625 C 5.23 g/m*3 1.63 C 0 km/h
300 02-03-2021 11:00:00 5.225 C 6.69 g/m*3 5.23 C 0 km/h
Sensor: Nr:Datum:Temp:Abs-Feuchte:Windchill:Wind:
Aussen-T/F 301 02-03-2021 12:00:00 8.925 C 7.96 g/m*3 8.93 C 0 km/h
302 02-03-2021 13:00:00 13.59167 C 8.19 g/m*3 13.59 C 0 km/h
303 02-03-2021 14:00:00 16.175 C 7.49 g/m*3 16.18 C 1.2 km/h
304 02-03-2021 15:00:00 15.58333 C 7.25 g/m*3 15.58 C 2 km/h
305 02-03-2021 16:00:00 15.725 C 7.56 g/m*3 15.73 C 1.86667 km/h
306 02-03-2021 17:00:00 14.525 C 7.54 g/m*3 14.53 C 5.46667 km/h
307 02-03-2021 18:00:00 10.81667 C 6.91 g/m*3 10.27 C 6.575 km/h
308 02-03-2021 19:00:00 8.775 C 6.67 g/m*3 8.78 C 4.93333 km/h
309 02-03-2021 20:00:00 7.50833 C 6.55 g/m*3 6.86 C 5.2 km/h
310 02-03-2021 21:00:00 6.21667 C 6.24 g/m*3 6.22 C 1.86667 km/h
311 02-03-2021 22:00:00 4.79167 C 5.91 g/m*3 4.79 C 0.53333 km/h
312 02-03-2021 23:00:00 3.46667 C 5.52 g/m*3 3.47 C 0 km/h
313 03-03-2021 00:00:00 2.61667 C 5.32 g/m*3 2.62 C 0.13333 km/h
314 03-03-2021 01:00:00 2.05 C 5.19 g/m*3 2.05 C 0 km/h
315 03-03-2021 02:00:00 1.41667 C 5 g/m*3 1.42 C 0 km/h
316 03-03-2021 03:00:00 1.09167 C 4.91 g/m*3 1.09 C 0 km/h
317 03-03-2021 04:00:00 1.24167 C 5.01 g/m*3 1.24 C 0 km/h
318 03-03-2021 05:00:00 0.89167 C 4.89 g/m*3 0.89 C 0.53333 km/h
319 03-03-2021 06:00:00 0.83333 C 4.88 g/m*3 0.83 C 0 km/h
320 03-03-2021 07:00:00 0.75833 C 4.86 g/m*3 0.76 C 0 km/h
321 03-03-2021 08:00:00 1.54167 C 5.17 g/m*3 1.54 C 0 km/h
322 03-03-2021 09:00:00 2.4 C 5.47 g/m*3 2.4 C 0.4 km/h
323 03-03-2021 10:00:00 3.43333 C 5.83 g/m*3 3.43 C 0 km/h
324 03-03-2021 11:00:00 6.2 C 6.61 g/m*3 6.2 C 0 km/h
325 03-03-2021 12:00:00 10.13333 C 7.19 g/m*3 10.13 C 0 km/h
Sensor: Nr:Datum:Temp:Abs-Feuchte:Windchill:Wind:
Aussen-T/F 326 03-03-2021 13:00:00 13.675 C 7.58 g/m*3 13.68 C 0.8 km/h
327 03-03-2021 14:00:00 15.6 C 7.58 g/m*3 15.6 C 1.075 km/h
328 03-03-2021 15:00:00 16.20833 C 7.58 g/m*3 16.21 C 0 km/h
329 03-03-2021 16:00:00 16.59167 C 7.9 g/m*3 16.59 C 0 km/h
330 03-03-2021 17:00:00 14.38333 C 7.98 g/m*3 14.38 C 0 km/h
331 03-03-2021 18:00:00 11.225 C 7.33 g/m*3 11.23 C 0 km/h
332 03-03-2021 19:00:00 9.75 C 7.11 g/m*3 9.75 C 0 km/h
333 03-03-2021 20:00:00 8.625 C 6.91 g/m*3 8.63 C 0 km/h
334 03-03-2021 21:00:00 7.79167 C 6.8 g/m*3 7.79 C 0 km/h
335 03-03-2021 22:00:00 7.88333 C 6.87 g/m*3 7.88 C 0 km/h
336 03-03-2021 23:00:00 7.79167 C 6.88 g/m*3 7.79 C 0 km/h

Maximal/Minimal-Werte vom 23.02.2003 - 03.08.2020

Sensor Min Max Avg
Temp
(Aussen-T/F)
-16.4 °C
20-12-2009  01:30:01
40.4 °C
25-07-2019  16:20:00
11.23 °C

Die Daten stammen von einer Davis Vantage Pro 2 Wetter-Station und werden unter Linux mit der Software wview2wettercgi und aufbereitet. Alle Angaben erfolgen ohne Gewähr für ihre Vollständigkeit oder Richtigkeit.
Kontakt: Rainer Krienke krienke@uni-koblenz.de . Meine Webseiten an der Uni Koblenz oder privat.
Version: $Revision: 0.78 $